Time;durP1;ratioP1;P1;durP2;ratioP2;P2;SDS_P1;SDS_P2;PMS_P1;PMS_P2;Temp;Humidity;BMP_temperature;BMP_pressure;BME280_temperature;BME280_humidity;BME280_pressure;Samples;Min_cycle;Max_cycle;Signal;HPM_P1;HPM_P2
2022/04/19 00:00:29;;;;;;;5.20;1.95;;;;;;;11.69;50.99;100909.50;5055108;28;20028;-43
2022/04/19 00:02:54;;;;;;;3.28;1.90;;;;;;;11.56;51.19;100890.53;5072951;28;20419;-42
2022/04/19 00:05:20;;;;;;;3.42;1.92;;;;;;;11.56;50.83;100899.41;5073033;28;20032;-44
2022/04/19 00:07:46;;;;;;;4.70;1.52;;;;;;;11.46;50.25;100879.22;5072514;28;20408;-42
2022/04/19 00:10:12;;;;;;;7.40;1.77;;;;;;;11.57;50.60;100897.56;5054737;28;20037;-43
2022/04/19 00:12:38;;;;;;;6.68;2.17;;;;;;;11.48;51.09;100888.78;5054856;28;20032;-43
2022/04/19 00:15:06;;;;;;;7.00;2.42;;;;;;;11.55;51.00;100900.47;5072582;28;20039;-43
2022/04/19 00:17:32;;;;;;;5.50;2.25;;;;;;;11.53;52.31;100896.28;5072729;28;20024;-45
2022/04/19 00:19:58;;;;;;;5.50;2.10;;;;;;;11.40;51.83;100886.19;5076623;28;20032;-43
2022/04/19 00:22:23;;;;;;;6.45;2.15;;;;;;;11.43;51.94;100900.09;5059090;28;20513;-43
2022/04/19 00:24:49;;;;;;;5.93;1.92;;;;;;;11.34;51.15;100887.78;5058838;28;20036;-43
2022/04/19 00:27:15;;;;;;;5.72;1.83;;;;;;;11.34;51.28;100895.03;5059069;28;20107;-42
2022/04/19 00:29:41;;;;;;;6.90;2.10;;;;;;;11.29;52.47;100892.06;5076675;28;20028;-43
2022/04/19 00:32:11;;;;;;;6.22;2.38;;;;;;;11.21;52.44;100893.81;5076828;28;20079;-44
2022/04/19 00:34:38;;;;;;;6.22;2.10;;;;;;;11.11;52.09;100887.91;5058515;28;20025;-43
2022/04/19 00:37:05;;;;;;;6.50;2.35;;;;;;;11.10;52.85;100894.31;5058408;28;20028;-43
2022/04/19 00:39:31;;;;;;;4.80;1.90;;;;;;;11.07;52.49;100894.69;5076581;28;20036;-43
2022/04/19 00:41:57;;;;;;;4.75;2.15;;;;;;;10.91;53.04;100876.91;5042262;28;20107;-43
2022/04/19 00:44:24;;;;;;;2.50;1.80;;;;;;;10.96;52.70;100893.31;5058884;28;20376;-42
2022/04/19 00:46:50;;;;;;;4.55;2.08;;;;;;;10.89;53.17;100895.06;5077306;28;20032;-44
2022/04/19 00:49:17;;;;;;;7.07;2.28;;;;;;;10.81;54.71;100895.16;5059837;28;20329;-43
2022/04/19 00:51:44;;;;;;;4.40;2.00;;;;;;;10.83;53.99;100890.44;5076612;28;20100;-42
2022/04/19 00:54:12;;;;;;;6.53;2.20;;;;;;;10.82;53.94;100886.06;5058723;28;20135;-45
2022/04/19 00:56:40;;;;;;;6.72;2.88;;;;;;;10.80;53.95;100878.19;5058506;28;20434;-44
2022/04/19 00:59:09;;;;;;;2.92;2.13;;;;;;;10.78;53.91;100882.09;5076004;28;20540;-43
2022/04/19 01:01:37;;;;;;;6.28;2.38;;;;;;;10.76;54.33;100886.81;5076044;28;20032;-43
2022/04/19 01:04:03;;;;;;;7.63;2.28;;;;;;;10.65;53.56;100872.81;5076540;28;20033;-43
2022/04/19 01:06:29;;;;;;;3.78;1.88;;;;;;;10.58;54.46;100877.25;5058818;28;20029;-46
2022/04/19 01:08:55;;;;;;;3.00;1.77;;;;;;;10.50;54.96;100874.66;5058574;28;20041;-43
2022/04/19 01:14:07;;;;;;;2.78;1.52;;;;;;;10.17;55.39;100844.56;5060771;28;20094;-43
2022/04/19 01:16:33;;;;;;;7.18;2.38;;;;;;;10.21;55.98;100865.47;5075897;28;20044;-43
2022/04/19 01:19:01;;;;;;;3.50;1.90;;;;;;;10.16;56.16;100875.09;5076122;28;20391;-44
2022/04/19 01:21:48;;;;;;;3.83;1.77;;;;;;;10.07;57.21;100869.78;5077361;28;20036;-44
2022/04/19 01:24:16;;;;;;;3.67;2.00;;;;;;;9.89;56.79;100848.63;5077940;28;20029;-44
2022/04/19 01:26:42;;;;;;;1.90;1.48;;;;;;;9.77;56.84;100846.53;5076602;28;20492;-42
2022/04/19 01:29:10;;;;;;;2.70;1.42;;;;;;;9.81;57.57;100867.47;5075268;28;20369;-42
2022/04/19 01:31:38;;;;;;;4.15;1.90;;;;;;;9.75;57.76;100864.66;5075404;28;20480;-43
2022/04/19 01:34:04;;;;;;;5.88;2.10;;;;;;;9.74;57.54;100871.88;5075597;28;20032;-44
2022/04/19 01:36:29;;;;;;;2.75;1.70;;;;;;;9.59;58.05;100861.09;5076126;28;20039;-46
2022/04/19 01:38:55;;;;;;;4.35;2.00;;;;;;;9.65;58.11;100872.94;5077853;28;20043;-45
2022/04/19 01:41:21;;;;;;;8.60;2.10;;;;;;;9.61;58.49;100869.78;5058498;28;20090;-48
2022/04/19 01:43:47;;;;;;;3.28;1.73;;;;;;;9.59;58.46;100869.13;5075965;28;20029;-43
2022/04/19 01:46:16;;;;;;;2.70;2.00;;;;;;;9.63;57.94;100866.94;5075746;28;20032;-43
2022/04/19 01:48:41;;;;;;;4.95;1.92;;;;;;;9.55;58.47;100865.16;5075170;28;20040;-43
2022/04/19 01:51:08;;;;;;;3.03;1.73;;;;;;;9.57;58.49;100873.00;5075075;28;20028;-43
2022/04/19 01:53:34;;;;;;;4.28;1.77;;;;;;;9.57;58.27;100867.66;5075027;28;20434;-44
2022/04/19 01:55:59;;;;;;;2.85;1.65;;;;;;;9.47;59.10;100865.19;5057167;28;20040;-43
2022/04/19 01:58:26;;;;;;;3.60;1.58;;;;;;;9.42;59.14;100865.72;5074814;28;20436;-43
2022/04/19 02:00:52;;;;;;;3.22;1.50;;;;;;;9.34;58.90;100852.34;5056928;28;20063;-43
2022/04/19 02:03:18;;;;;;;3.13;1.85;;;;;;;9.39;59.16;100868.75;5057518;28;20032;-46
2022/04/19 02:05:43;;;;;;;2.63;1.60;;;;;;;9.36;59.19;100861.06;5057011;28;20040;-45
2022/04/19 02:08:09;;;;;;;3.83;2.00;;;;;;;9.29;59.68;100858.25;5074356;28;20138;-43
2022/04/19 02:10:35;;;;;;;8.43;2.30;;;;;;;9.29;58.81;100857.41;5056564;28;20052;-44
2022/04/19 02:13:00;;;;;;;5.57;2.28;;;;;;;9.32;59.48;100865.09;5056770;28;20036;-43
2022/04/19 02:15:26;;;;;;;4.07;1.92;;;;;;;9.20;59.34;100848.56;5074853;28;20035;-44
2022/04/19 02:17:52;;;;;;;8.20;2.22;;;;;;;9.29;58.97;100866.28;5074665;28;20024;-42
2022/04/19 02:20:19;;;;;;;6.65;1.80;;;;;;;9.28;59.18;100861.09;5056333;28;20028;-45
2022/04/19 02:22:45;;;;;;;5.20;2.25;;;;;;;9.26;59.20;100863.94;5074377;28;20501;-43
2022/04/19 02:25:13;;;;;;;4.55;2.05;;;;;;;9.17;59.94;100861.50;5074529;28;20028;-42
2022/04/19 02:27:41;;;;;;;2.70;1.92;;;;;;;9.15;59.84;100867.03;5056681;28;20384;-42
2022/04/19 02:30:13;;;;;;;4.70;2.25;;;;;;;9.15;60.16;100868.88;5074312;28;20477;-44
2022/04/19 02:32:40;;;;;;;4.07;2.00;;;;;;;9.08;59.83;100864.22;5074494;28;20040;-43
2022/04/19 02:35:06;;;;;;;5.68;2.45;;;;;;;9.06;60.33;100870.75;5074031;28;20047;-43
2022/04/19 02:37:32;;;;;;;8.52;1.95;;;;;;;9.03;60.16;100863.91;5074098;28;20020;-43
2022/04/19 02:39:58;;;;;;;3.42;2.00;;;;;;;8.96;60.33;100864.78;5056137;28;20028;-43
2022/04/19 02:42:24;;;;;;;5.32;2.30;;;;;;;8.89;61.06;100869.97;5038628;28;20024;-43
2022/04/19 02:44:50;;;;;;;4.70;2.13;;;;;;;8.90;60.53;100872.47;5074132;28;20055;-42
2022/04/19 02:47:17;;;;;;;6.57;2.20;;;;;;;8.87;60.94;100872.81;5056115;28;20029;-45
2022/04/19 02:49:45;;;;;;;6.95;2.00;;;;;;;8.88;61.00;100869.16;5074056;28;20249;-44
2022/04/19 02:52:11;;;;;;;6.85;2.50;;;;;;;8.84;61.46;100861.59;5073973;28;20040;-44
2022/04/19 02:54:37;;;;;;;4.13;2.13;;;;;;;8.79;60.58;100858.63;5073958;28;20047;-43
2022/04/19 02:57:04;;;;;;;3.13;1.95;;;;;;;8.64;61.01;100851.31;5073632;28;20377;-44
2022/04/19 02:59:29;;;;;;;4.85;1.80;;;;;;;8.70;61.43;100866.69;5055900;28;20065;-44
2022/04/19 03:01:55;;;;;;;7.82;2.33;;;;;;;8.62;61.49;100866.72;5073404;28;20032;-44
2022/04/19 03:04:22;;;;;;;2.88;1.80;;;;;;;8.48;62.35;100851.34;5038829;28;20024;-43
2022/04/19 03:06:48;;;;;;;5.20;2.30;;;;;;;8.41;61.91;100844.97;5055818;28;20507;-45
2022/04/19 03:09:14;;;;;;;3.15;1.95;;;;;;;8.40;62.10;100849.47;5073627;28;20056;-44
2022/04/19 03:11:40;;;;;;;5.78;2.50;;;;;;;8.38;62.72;100848.81;5055793;28;20035;-44
2022/04/19 03:14:07;;;;;;;3.30;2.10;;;;;;;8.32;62.82;100855.69;5073297;28;20033;-43
2022/04/19 03:16:33;;;;;;;3.10;1.92;;;;;;;8.36;62.74;100874.91;5039189;28;20036;-42
2022/04/19 03:18:59;;;;;;;6.60;1.77;;;;;;;8.27;63.06;100866.06;5055323;28;20437;-42
2022/04/19 03:21:25;;;;;;;4.13;2.08;;;;;;;8.19;63.81;100867.88;5073329;28;20033;-44
2022/04/19 03:29:22;;;;;;;3.35;1.95;;;;;;;8.07;64.26;100870.06;5058134;28;20369;-42
2022/04/19 03:31:47;;;;;;;2.63;2.38;;;;;;;8.03;64.19;100876.78;5073100;28;20081;-43
2022/04/19 03:34:13;;;;;;;3.53;2.13;;;;;;;8.01;63.57;100868.91;5073116;28;20028;-43
2022/04/19 03:36:39;;;;;;;5.35;2.25;;;;;;;7.91;64.63;100855.72;5055639;28;20115;-43
2022/04/19 03:39:05;;;;;;;5.45;2.40;;;;;;;7.89;64.78;100852.38;5073009;28;20431;-43
2022/04/19 03:41:30;;;;;;;2.85;2.28;;;;;;;7.91;65.24;100865.53;5073137;28;20024;-42
2022/04/19 03:43:56;;;;;;;5.53;2.63;;;;;;;7.81;64.72;100849.66;5073087;28;20051;-45
2022/04/19 03:46:22;;;;;;;4.72;2.25;;;;;;;7.85;65.43;100867.03;5072972;28;20047;-43
2022/04/19 03:48:48;;;;;;;3.10;1.85;;;;;;;7.80;65.35;100863.19;5072784;28;20033;-43
2022/04/19 03:51:14;;;;;;;2.85;1.92;;;;;;;7.72;65.31;100848.81;5055060;28;20063;-43
2022/04/19 03:53:40;;;;;;;5.70;2.70;;;;;;;7.77;64.72;100869.72;5037940;28;20505;-44
2022/04/19 03:56:06;;;;;;;4.10;2.08;;;;;;;7.75;65.53;100871.72;5077019;28;20036;-43
2022/04/19 03:58:32;;;;;;;5.38;2.47;;;;;;;7.74;65.46;100870.91;5075343;28;20040;-43
2022/04/19 04:01:00;;;;;;;3.67;2.45;;;;;;;7.69;65.89;100875.03;5055399;28;20480;-43
2022/04/19 04:03:26;;;;;;;6.20;2.20;;;;;;;7.63;65.15;100873.88;5038940;28;20116;-43
2022/04/19 04:05:52;;;;;;;3.75;2.55;;;;;;;7.68;65.36;100868.88;5073801;28;20025;-43
2022/04/19 04:08:18;;;;;;;7.40;2.75;;;;;;;7.66;65.88;100875.38;5072946;28;20446;-43
2022/04/19 04:10:43;;;;;;;4.20;2.20;;;;;;;7.59;66.10;100863.69;5073354;28;20028;-43
2022/04/19 04:13:09;;;;;;;5.10;2.55;;;;;;;7.60;65.91;100870.72;5073180;28;20108;-43
2022/04/19 04:15:35;;;;;;;5.47;2.50;;;;;;;7.50;66.34;100869.03;5055179;28;20086;-43
2022/04/19 04:18:02;;;;;;;4.72;2.58;;;;;;;7.23;67.58;100837.22;5055030;28;20116;-43
2022/04/19 04:20:28;;;;;;;7.15;2.88;;;;;;;7.27;67.73;100852.75;5039370;28;20386;-44
2022/04/19 04:22:53;;;;;;;4.15;3.00;;;;;;;7.29;67.15;100864.09;5074231;28;20036;-46
2022/04/19 04:25:20;;;;;;;9.10;4.43;;;;;;;7.34;67.14;100874.31;5073199;28;20082;-43
2022/04/19 04:27:45;;;;;;;9.88;4.10;;;;;;;7.28;68.20;100877.63;5072701;28;20106;-42
2022/04/19 04:30:12;;;;;;;5.68;3.22;;;;;;;7.27;67.75;100878.63;5072574;28;20495;-44
2022/04/19 04:32:37;;;;;;;5.28;2.80;;;;;;;7.13;67.77;100856.88;5072552;28;20029;-42
2022/04/19 04:35:04;;;;;;;2.90;2.45;;;;;;;7.07;67.51;100846.81;5072642;28;20060;-43
2022/04/19 04:37:30;;;;;;;3.70;2.30;;;;;;;7.18;67.61;100875.91;5038335;28;20052;-44
2022/04/19 04:39:56;;;;;;;6.63;2.97;;;;;;;7.15;66.76;100870.06;5054487;28;20111;-42
2022/04/19 04:42:21;;;;;;;4.90;2.40;;;;;;;7.10;67.86;100872.41;5072237;28;20032;-44
2022/04/19 04:44:47;;;;;;;4.70;2.67;;;;;;;7.05;67.96;100869.38;5072556;28;20480;-43
2022/04/19 04:50:00;;;;;;;2.40;1.90;;;;;;;6.98;68.19;100863.81;5057263;28;20029;-43
2022/04/19 04:52:26;;;;;;;4.57;2.47;;;;;;;6.96;67.60;100863.13;5054199;28;20492;-42
2022/04/19 04:54:51;;;;;;;4.68;2.40;;;;;;;6.91;68.55;100876.13;5072313;28;20089;-43
2022/04/19 04:57:19;;;;;;;4.78;2.42;;;;;;;6.89;68.35;100875.44;5072215;28;20388;-45
2022/04/19 04:59:47;;;;;;;4.63;2.72;;;;;;;6.78;68.00;100857.91;5054333;28;20493;-43
2022/04/19 05:02:12;;;;;;;5.68;2.78;;;;;;;6.84;68.07;100875.13;5072406;28;20141;-43
2022/04/19 05:04:38;;;;;;;6.70;2.67;;;;;;;6.79;68.97;100865.72;5073576;28;20036;-46
2022/04/19 05:07:04;;;;;;;5.35;3.17;;;;;;;6.56;68.66;100835.25;5075751;28;20049;-44
2022/04/19 05:09:30;;;;;;;6.60;2.83;;;;;;;6.78;68.20;100874.75;5076077;28;20431;-42
2022/04/19 05:11:56;;;;;;;4.72;2.75;;;;;;;6.78;68.55;100876.59;5057853;28;20036;-42
2022/04/19 05:14:22;;;;;;;3.25;2.58;;;;;;;6.78;68.30;100880.09;5075720;28;20063;-44
2022/04/19 05:16:48;;;;;;;6.07;2.20;;;;;;;6.66;68.71;100859.16;5058411;28;20454;-44
2022/04/19 05:19:14;;;;;;;4.65;3.33;;;;;;;6.84;68.07;100893.81;5041677;28;20354;-46
2022/04/19 05:21:40;;;;;;;3.72;2.50;;;;;;;6.84;68.61;100880.47;5075896;28;20116;-44
2022/04/19 05:24:07;;;;;;;4.78;2.55;;;;;;;6.81;69.23;100889.59;5076043;28;20032;-45
2022/04/19 05:26:33;;;;;;;4.13;2.75;;;;;;;6.83;68.79;100892.13;5058047;28;20028;-43
2022/04/19 05:28:58;;;;;;;6.60;2.70;;;;;;;6.84;68.10;100883.94;5058435;28;20035;-44
2022/04/19 05:31:24;;;;;;;4.20;2.97;;;;;;;6.87;67.80;100886.31;5058293;28;20464;-43
2022/04/19 05:33:51;;;;;;;5.57;2.45;;;;;;;6.87;68.48;100893.47;5076251;28;20089;-46
2022/04/19 05:36:17;;;;;;;5.50;2.53;;;;;;;6.87;68.64;100888.97;5076022;28;20587;-44
2022/04/19 05:38:43;;;;;;;5.32;3.22;;;;;;;6.89;68.43;100887.00;5058123;28;20040;-45
2022/04/19 05:41:10;;;;;;;7.90;3.30;;;;;;;7.01;68.16;100889.38;5075610;28;20472;-43
2022/04/19 05:43:36;;;;;;;3.65;2.70;;;;;;;7.11;68.44;100898.09;5058531;28;20523;-43
2022/04/19 05:46:02;;;;;;;5.75;2.85;;;;;;;7.17;67.99;100890.28;5075941;28;20082;-43
2022/04/19 05:48:28;;;;;;;3.30;2.63;;;;;;;7.21;67.98;100882.78;5057889;28;20025;-46
2022/04/19 05:50:54;;;;;;;4.40;3.10;;;;;;;7.45;68.16;100892.72;5075234;28;20104;-45
2022/04/19 05:53:19;;;;;;;5.60;2.78;;;;;;;7.53;67.05;100897.25;5056873;28;20033;-45
2022/04/19 05:55:46;;;;;;;5.55;3.30;;;;;;;7.36;68.22;100867.81;5075688;28;20111;-45
2022/04/19 05:58:11;;;;;;;5.03;3.50;;;;;;;7.55;67.88;100897.91;5075674;28;20025;-46
2022/04/19 06:00:37;;;;;;;7.07;3.65;;;;;;;7.39;68.34;100871.97;5074939;28;20147;-43
2022/04/19 06:05:49;;;;;;;6.40;2.88;;;;;;;7.61;67.80;100888.41;5060200;28;20024;-42
2022/04/19 06:08:15;;;;;;;7.78;3.60;;;;;;;7.91;67.21;100909.19;5074867;28;20496;-45
2022/04/19 06:10:41;;;;;;;4.97;3.15;;;;;;;8.31;67.30;100907.53;5074884;28;20044;-44
2022/04/19 06:13:07;;;;;;;3.83;3.47;;;;;;;10.32;61.11;100903.69;5074762;28;20040;-45
2022/04/19 06:15:34;;;;;;;3.53;2.95;;;;;;;10.53;58.74;100898.47;5075563;28;20052;-47
2022/04/19 06:18:00;;;;;;;4.63;3.53;;;;;;;10.00;59.88;100897.53;5077620;28;20456;-45
2022/04/19 06:20:26;;;;;;;5.97;3.47;;;;;;;9.37;61.83;100891.38;5058971;28;20082;-45
2022/04/19 06:22:52;;;;;;;6.82;3.63;;;;;;;9.02;63.16;100909.59;5076650;28;20033;-43
2022/04/19 06:25:18;;;;;;;11.07;3.45;;;;;;;8.83;63.95;100900.13;5058207;28;20028;-42
2022/04/19 06:27:43;;;;;;;10.15;4.03;;;;;;;8.78;64.36;100905.16;5058805;28;20371;-44
2022/04/19 06:30:10;;;;;;;5.88;3.40;;;;;;;8.69;65.36;100894.47;5076273;28;20029;-43
2022/04/19 06:32:36;;;;;;;7.57;4.25;;;;;;;8.72;65.23;100904.00;5077149;28;20107;-45
2022/04/19 06:35:03;;;;;;;6.18;3.92;;;;;;;8.63;66.14;100905.84;5077306;28;20032;-46
2022/04/19 06:37:30;;;;;;;8.52;3.65;;;;;;;8.67;66.03;100915.22;5075119;28;20104;-42
2022/04/19 06:40:00;;;;;;;3.67;3.03;;;;;;;8.68;65.53;100908.03;5075357;28;20063;-43
2022/04/19 06:42:27;;;;;;;5.70;3.40;;;;;;;8.60;66.74;100903.53;5056527;28;20029;-42
2022/04/19 06:44:53;;;;;;;5.15;3.75;;;;;;;8.55;67.16;100902.38;5057853;28;20032;-43
2022/04/19 06:47:19;;;;;;;8.65;4.05;;;;;;;8.63;67.09;100910.38;5075680;28;20502;-43
2022/04/19 06:49:45;;;;;;;7.22;4.00;;;;;;;8.64;67.34;100912.06;5075071;28;20046;-46
2022/04/19 06:52:11;;;;;;;8.10;4.60;;;;;;;8.65;67.47;100905.69;5074336;28;20034;-44
2022/04/19 06:54:37;;;;;;;7.75;5.00;;;;;;;8.67;67.51;100909.03;5074212;28;20456;-48
2022/04/19 06:57:03;;;;;;;11.00;4.40;;;;;;;8.47;67.58;100889.84;5074344;28;20025;-45
2022/04/19 06:59:29;;;;;;;9.98;5.10;;;;;;;8.57;68.31;100909.22;5074120;28;20158;-44
2022/04/19 07:01:55;;;;;;;9.77;4.28;;;;;;;8.48;68.20;100899.50;5055835;28;20075;-43
2022/04/19 07:04:21;;;;;;;9.27;5.00;;;;;;;8.30;68.53;100879.09;5073539;28;20425;-43
2022/04/19 07:06:46;;;;;;;9.68;4.75;;;;;;;8.63;68.32;100915.72;5073547;28;20037;-43
2022/04/19 07:09:13;;;;;;;6.30;4.50;;;;;;;8.66;67.70;100916.22;5039284;28;20040;-42
2022/04/19 07:11:39;;;;;;;12.15;5.32;;;;;;;8.64;67.57;100898.66;5073780;28;20039;-42
2022/04/19 07:14:04;;;;;;;13.23;4.30;;;;;;;8.79;67.29;100907.66;5073584;28;20025;-42
2022/04/19 07:16:30;;;;;;;12.68;4.90;;;;;;;8.80;66.83;100909.31;5074004;28;20068;-42
2022/04/19 07:18:56;;;;;;;8.75;4.65;;;;;;;8.91;66.92;100926.88;5073813;28;20039;-42
2022/04/19 07:26:53;;;;;;;6.30;3.97;;;;;;;9.14;66.28;100932.34;5058303;28;20028;-44
2022/04/19 07:29:18;;;;;;;13.05;4.72;;;;;;;9.23;65.91;100930.47;5073241;28;20036;-43
2022/04/19 07:31:46;;;;;;;13.45;4.70;;;;;;;9.29;65.39;100937.81;5073513;28;20028;-43
2022/04/19 07:34:13;;;;;;;9.18;4.65;;;;;;;9.33;65.27;100924.91;5056027;28;20028;-44
2022/04/19 07:36:41;;;;;;;7.90;5.18;;;;;;;9.50;65.06;100924.66;5073865;28;20036;-42
2022/04/19 07:39:09;;;;;;;7.85;4.78;;;;;;;9.61;64.73;100927.97;5073093;28;20040;-42
2022/04/19 07:41:37;;;;;;;13.23;5.45;;;;;;;9.62;64.58;100927.78;5073462;28;20051;-42
2022/04/19 07:44:04;;;;;;;9.43;5.05;;;;;;;9.78;64.09;100934.06;5072797;28;20067;-42
2022/04/19 07:46:30;;;;;;;11.45;5.22;;;;;;;9.88;63.97;100937.38;5054853;28;20036;-43
2022/04/19 07:48:56;;;;;;;12.18;4.93;;;;;;;9.96;63.65;100920.38;5054634;28;20032;-42
2022/04/19 07:51:22;;;;;;;12.20;4.65;;;;;;;10.14;63.29;100936.16;5073140;28;20484;-42
2022/04/19 07:53:48;;;;;;;6.25;4.50;;;;;;;10.19;63.32;100923.03;5073323;28;20075;-44
2022/04/19 07:56:14;;;;;;;6.68;4.57;;;;;;;10.36;62.80;100940.72;5055019;28;20056;-42
2022/04/19 07:58:42;;;;;;;9.93;4.55;;;;;;;10.44;62.46;100948.72;5055132;28;20107;-42
2022/04/19 08:01:10;;;;;;;9.98;4.95;;;;;;;10.54;61.95;100948.44;5055938;28;20039;-41
2022/04/19 08:03:36;;;;;;;10.30;4.63;;;;;;;10.50;62.37;100928.34;5072791;28;20036;-42
2022/04/19 08:06:02;;;;;;;8.88;4.55;;;;;;;10.63;61.83;100943.84;5055168;28;20427;-43
2022/04/19 08:08:28;;;;;;;10.35;5.05;;;;;;;10.75;61.53;100942.38;5072988;28;20048;-43
2022/04/19 08:10:53;;;;;;;6.47;4.63;;;;;;;10.79;61.02;100926.72;5038619;28;20048;-45
2022/04/19 08:13:19;;;;;;;13.10;4.28;;;;;;;10.93;61.05;100931.28;5055208;28;20492;-43
2022/04/19 08:15:46;;;;;;;7.05;4.32;;;;;;;11.10;60.64;100939.16;5055031;28;20032;-43
2022/04/19 08:18:14;;;;;;;8.85;4.10;;;;;;;11.18;60.69;100939.06;5073138;28;20028;-43
2022/04/19 08:20:41;;;;;;;10.57;4.45;;;;;;;11.28;60.55;100933.44;5038617;28;20036;-42
2022/04/19 08:23:08;;;;;;;6.85;4.22;;;;;;;11.42;60.13;100941.47;5072966;28;20128;-42
2022/04/19 08:25:35;;;;;;;9.38;3.65;;;;;;;11.55;59.81;100943.50;5072690;28;20447;-42
2022/04/19 08:28:01;;;;;;;8.15;3.90;;;;;;;11.55;59.85;100930.06;5072462;28;20496;-44
2022/04/19 08:30:27;;;;;;;11.27;4.70;;;;;;;11.58;59.85;100934.22;5072579;28;20036;-43
2022/04/19 08:32:53;;;;;;;8.48;3.50;;;;;;;11.63;59.17;100921.84;5072623;28;20035;-42
2022/04/19 08:35:19;;;;;;;3.53;3.22;;;;;;;11.95;58.72;100951.22;5072854;28;20039;-46
2022/04/19 08:37:45;;;;;;;9.68;4.15;;;;;;;11.98;59.13;100951.69;5073071;28;20029;-44
2022/04/19 08:40:13;;;;;;;15.88;4.13;;;;;;;12.16;58.16;100945.00;5074929;28;20060;-44
2022/04/19 08:42:40;;;;;;;7.53;4.13;;;;;;;12.19;57.69;100936.56;5076926;28;20036;-42
2022/04/19 08:45:08;;;;;;;6.70;4.05;;;;;;;12.22;57.25;100929.94;5058862;28;20245;-45
2022/04/19 08:47:38;;;;;;;12.13;4.32;;;;;;;12.29;56.90;100917.38;5077301;28;20437;-42
2022/04/19 08:50:06;;;;;;;7.60;4.15;;;;;;;12.51;56.87;100937.88;5076764;28;20477;-45
2022/04/19 08:52:33;;;;;;;6.15;4.50;;;;;;;12.65;56.80;100933.44;5077234;28;20421;-43
2022/04/19 08:57:45;;;;;;;9.70;4.53;;;;;;;12.90;55.36;100922.19;5062202;28;20036;-43
2022/04/19 09:00:12;;;;;;;9.38;4.22;;;;;;;13.23;54.93;100924.25;5077444;28;20024;-43
2022/04/19 09:02:38;;;;;;;9.77;4.00;;;;;;;13.34;54.50;100921.84;5077598;28;20115;-43
2022/04/19 09:05:21;;;;;;;9.40;3.92;;;;;;;13.63;54.39;100925.28;5060283;28;20021;-43
2022/04/19 09:07:49;;;;;;;9.18;3.47;;;;;;;14.11;53.31;100918.94;5079014;28;20052;-44
2022/04/19 09:10:33;;;;;;;8.20;3.35;;;;;;;14.71;51.30;100906.31;5061540;28;20024;-43
2022/04/19 09:13:02;;;;;;;8.05;4.18;;;;;;;16.08;48.00;100921.59;5078720;28;20033;-42
2022/04/19 09:15:34;;;;;;;8.60;3.72;;;;;;;15.61;48.14;100912.88;5059589;28;20058;-43
2022/04/19 09:18:00;;;;;;;10.70;3.38;;;;;;;15.51;48.88;100921.47;5077251;28;20028;-44
2022/04/19 09:20:26;;;;;;;4.63;3.60;;;;;;;16.80;46.18;100910.38;5077088;28;20043;-44
2022/04/19 09:23:11;;;;;;;5.65;4.00;;;;;;;18.26;42.81;100912.31;5076722;28;20036;-43
2022/04/19 09:25:39;;;;;;;6.55;3.60;;;;;;;18.53;43.54;100882.78;5075982;28;20039;-44
2022/04/19 09:28:16;;;;;;;7.32;3.53;;;;;;;19.29;41.90;100904.63;5058795;28;20052;-44
2022/04/19 09:30:43;;;;;;;6.95;3.58;;;;;;;20.30;40.75;100896.69;5057756;28;20361;-43
2022/04/19 09:33:14;;;;;;;7.60;3.33;;;;;;;20.80;39.14;100907.84;5075485;28;20388;-44
2022/04/19 09:35:44;;;;;;;4.57;2.90;;;;;;;20.82;38.90;100908.41;5075508;28;20031;-43
2022/04/19 09:38:12;;;;;;;6.57;3.05;;;;;;;20.76;39.03;100907.50;5058094;28;20021;-44
2022/04/19 09:40:41;;;;;;;7.20;3.38;;;;;;;20.83;37.95;100910.06;5057618;28;20083;-49
2022/04/19 09:43:16;;;;;;;5.63;3.10;;;;;;;20.77;36.95;100913.81;5040892;28;20068;-44
2022/04/19 09:45:51;;;;;;;6.80;2.78;;;;;;;20.10;38.65;100899.91;5075361;28;20117;-43
2022/04/19 09:48:19;;;;;;;5.65;3.03;;;;;;;19.84;40.37;100906.81;5075249;28;20028;-44
2022/04/19 09:50:51;;;;;;;9.13;3.15;;;;;;;19.30;40.88;100895.38;5074871;28;20028;-42
2022/04/19 09:53:20;;;;;;;4.43;3.22;;;;;;;18.77;41.49;100887.13;5075274;28;20405;-44
2022/04/19 09:55:51;;;;;;;4.15;3.00;;;;;;;19.06;41.23;100909.03;5056996;28;20361;-46
2022/04/19 09:58:17;;;;;;;6.53;3.95;;;;;;;18.58;42.10;100908.19;5057275;28;20035;-45
2022/04/19 10:00:44;;;;;;;5.13;3.58;;;;;;;18.03;43.74;100911.19;5057116;28;20033;-44
2022/04/19 10:08:46;;;;;;;11.63;3.65;;;;;;;18.30;42.48;100914.31;5059900;28;20109;-43
2022/04/19 10:11:12;;;;;;;6.60;3.83;;;;;;;19.31;40.87;100916.91;5074993;28;20416;-43
2022/04/19 10:13:40;;;;;;;5.70;3.28;;;;;;;20.00;39.30;100904.34;5056953;28;20036;-44
2022/04/19 10:16:14;;;;;;;4.30;3.15;;;;;;;20.88;38.02;100919.16;5040018;28;20063;-43
2022/04/19 10:18:41;;;;;;;6.57;2.65;;;;;;;22.19;37.08;100913.03;5040423;28;20031;-43
2022/04/19 10:21:10;;;;;;;4.35;2.70;;;;;;;22.93;35.01;100894.97;5074321;28;20028;-43
2022/04/19 10:23:39;;;;;;;7.65;3.42;;;;;;;22.68;34.97;100901.09;5056446;28;20036;-44
2022/04/19 10:26:23;;;;;;;4.93;3.15;;;;;;;22.67;32.17;100891.25;5056709;28;20020;-44
2022/04/19 10:28:52;;;;;;;8.27;3.20;;;;;;;22.50;36.17;100903.19;5074324;28;20028;-43
2022/04/19 10:31:28;;;;;;;7.30;3.40;;;;;;;23.66;31.75;100907.88;5056201;28;20036;-46
2022/04/19 10:33:54;;;;;;;6.90;3.03;;;;;;;23.92;34.00;100893.16;5056580;28;20028;-43
2022/04/19 10:36:40;;;;;;;5.05;3.20;;;;;;;26.01;29.97;100892.84;5074197;28;20033;-45
2022/04/19 10:39:19;;;;;;;4.30;2.58;;;;;;;26.38;28.52;100879.63;5026169;28;20032;-43
2022/04/19 10:42:05;;;;;;;7.10;3.17;;;;;;;25.15;29.00;100881.22;5056306;28;20423;-46
2022/04/19 10:44:49;;;;;;;8.15;4.00;;;;;;;24.13;30.66;100896.75;5056208;28;20024;-45
2022/04/19 10:47:16;;;;;;;7.75;3.35;;;;;;;23.64;32.25;100896.38;5039656;28;20055;-45
2022/04/19 10:50:03;;;;;;;4.60;3.22;;;;;;;24.19;31.59;100902.25;5056630;28;20025;-43
2022/04/19 10:52:49;;;;;;;5.55;4.00;;;;;;;24.59;29.34;100895.09;5060948;28;20472;-43
2022/04/19 10:55:22;;;;;;;5.75;3.20;;;;;;;24.06;28.41;100898.94;5056004;28;20039;-43
2022/04/19 10:58:06;;;;;;;3.43;2.80;;;;;;;24.30;31.08;100899.22;5057526;28;20020;-45
2022/04/19 11:00:51;;;;;;;7.90;3.28;;;;;;;24.76;30.30;100890.13;5063319;28;20670;-42
2022/04/19 11:03:20;;;;;;;4.07;3.00;;;;;;;25.34;30.18;100889.66;5059480;28;20033;-43
2022/04/19 11:05:51;;;;;;;6.07;3.40;;;;;;;24.96;29.82;100891.16;5060905;28;20032;-42
2022/04/19 11:08:36;;;;;;;4.38;3.20;;;;;;;24.69;28.97;100890.41;5079803;28;20136;-43
2022/04/19 11:11:21;;;;;;;4.07;3.55;;;;;;;24.97;30.62;100890.06;5074808;28;20482;-44
2022/04/19 11:14:16;;;;;;;5.25;3.35;;;;;;;24.55;29.31;100889.31;5059601;28;20383;-44
2022/04/19 11:16:42;;;;;;;6.80;3.60;;;;;;;24.51;29.84;100889.03;5060977;28;20032;-43
2022/04/19 11:19:25;;;;;;;6.50;4.43;;;;;;;23.34;29.56;100878.72;5074304;28;20101;-44
2022/04/19 11:21:54;;;;;;;11.73;3.80;;;;;;;23.32;30.67;100879.00;5074354;28;20036;-43
2022/04/19 11:25:00;;;;;;;4.40;3.20;;;;;;;24.81;28.05;100879.09;5058252;28;20039;-44
2022/04/19 11:28:08;;;;;;;5.70;3.38;;;;;;;25.46;27.27;100879.16;5046464;28;20042;-43
2022/04/19 11:30:34;;;;;;;5.43;3.03;;;;;;;26.88;26.98;100876.66;5050362;28;20035;-43
2022/04/19 11:33:00;;;;;;;4.30;3.15;;;;;;;27.79;27.39;100866.34;5076227;28;20024;-44
2022/04/19 11:35:30;;;;;;;6.30;3.80;;;;;;;27.34;24.42;100865.06;5074358;28;20472;-44
2022/04/19 11:37:56;;;;;;;7.85;3.70;;;;;;;28.57;24.40;100875.00;5073736;28;20033;-43
2022/04/19 11:48:48;;;;;;;9.40;3.00;;;;;;;29.28;23.27;100869.19;5044271;28;20025;-44
2022/04/19 11:51:16;;;;;;;5.95;3.10;;;;;;;28.70;24.05;100853.22;5039344;28;20032;-45
2022/04/19 11:53:43;;;;;;;5.03;3.65;;;;;;;26.28;24.54;100869.53;5054765;28;20078;-43
2022/04/19 11:56:09;;;;;;;8.07;4.35;;;;;;;24.62;26.70;100845.94;5073129;28;20066;-43
2022/04/19 11:58:36;;;;;;;6.45;4.50;;;;;;;23.82;29.60;100871.19;5072825;28;20426;-44
2022/04/19 12:01:05;;;;;;;5.32;4.50;;;;;;;23.48;30.00;100866.19;5073182;28;20085;-44
2022/04/19 12:03:37;;;;;;;5.43;3.40;;;;;;;23.83;29.62;100855.56;5055608;28;20032;-45
2022/04/19 12:06:07;;;;;;;3.75;3.20;;;;;;;24.07;28.65;100861.31;5074480;28;20024;-46
2022/04/19 12:08:38;;;;;;;6.07;3.15;;;;;;;23.81;28.17;100860.50;5074865;28;20052;-45